Time;durP1;ratioP1;P1;durP2;ratioP2;P2;SDS_P1;SDS_P2;PMS_P1;PMS_P2;Temp;Humidity;BMP_temperature;BMP_pressure;BME280_temperature;BME280_humidity;BME280_pressure;Samples;Min_cycle;Max_cycle;Signal;HPM_P1;HPM_P2
2021/01/23 00:02:18;;;;;;;14.25;7.97;;;3.90;99.90;;;;;;5010825;28;20045;-80
2021/01/23 00:04:43;;;;;;;11.57;8.50;;;3.90;99.90;;;;;;5010779;28;20029;-80
2021/01/23 00:07:10;;;;;;;12.00;8.10;;;3.90;99.90;;;;;;5027174;28;20041;-83
2021/01/23 00:09:36;;;;;;;18.60;10.18;;;3.90;99.90;;;;;;5028527;28;20047;-80
2021/01/23 00:12:03;;;;;;;11.35;7.43;;;3.90;99.90;;;;;;5028383;28;20030;-81
2021/01/23 00:14:29;;;;;;;12.25;8.00;;;3.90;99.90;;;;;;5027177;28;20400;-81
2021/01/23 00:16:54;;;;;;;11.75;7.38;;;3.90;99.90;;;;;;4994471;28;20036;-79
2021/01/23 00:19:20;;;;;;;11.88;8.57;;;3.90;99.90;;;;;;4994266;28;20030;-80
2021/01/23 00:21:46;;;;;;;15.52;8.82;;;3.90;99.90;;;;;;5026906;28;20033;-80
2021/01/23 00:24:12;;;;;;;14.23;8.88;;;3.90;99.90;;;;;;5009888;28;20026;-80
2021/01/23 00:26:41;;;;;;;11.95;8.30;;;3.90;99.90;;;;;;5010459;28;20053;-80
2021/01/23 00:29:06;;;;;;;14.63;9.13;;;3.90;99.90;;;;;;5028080;28;20480;-82
2021/01/23 00:31:32;;;;;;;16.13;9.75;;;3.80;99.90;;;;;;5026889;28;20043;-80
2021/01/23 00:33:58;;;;;;;16.35;9.50;;;3.80;99.90;;;;;;5026938;28;20432;-81
2021/01/23 00:36:23;;;;;;;16.88;10.18;;;3.70;99.90;;;;;;5010348;28;20030;-81
2021/01/23 00:38:49;;;;;;;16.50;9.95;;;3.70;99.90;;;;;;4994094;28;20041;-80
2021/01/23 00:41:15;;;;;;;18.83;8.82;;;3.70;99.90;;;;;;5026697;28;20026;-80
2021/01/23 00:43:40;;;;;;;13.70;9.32;;;3.70;99.90;;;;;;4993987;28;20056;-81
2021/01/23 00:46:06;;;;;;;14.80;9.98;;;3.70;99.90;;;;;;5026761;28;20036;-78
2021/01/23 00:48:32;;;;;;;13.32;10.20;;;3.70;99.90;;;;;;5026570;28;20022;-80
2021/01/23 00:50:57;;;;;;;15.43;9.82;;;3.70;99.90;;;;;;5026805;28;20036;-79
2021/01/23 00:53:23;;;;;;;18.25;8.77;;;3.60;99.90;;;;;;5026656;28;20117;-82
2021/01/23 00:55:49;;;;;;;16.92;8.85;;;3.60;99.90;;;;;;5026668;28;20500;-80
2021/01/23 00:58:14;;;;;;;14.38;8.52;;;3.60;99.90;;;;;;5010120;28;20030;-78
2021/01/23 01:00:40;;;;;;;14.70;7.80;;;3.70;99.90;;;;;;5010071;28;20026;-81
2021/01/23 01:03:06;;;;;;;13.25;7.90;;;3.70;99.90;;;;;;5026596;28;20029;-81
2021/01/23 01:05:31;;;;;;;13.10;8.70;;;3.80;99.90;;;;;;4993840;28;20021;-80
2021/01/23 01:07:57;;;;;;;12.90;6.90;;;3.80;99.90;;;;;;5010066;28;20502;-81
2021/01/23 01:10:23;;;;;;;13.25;7.18;;;3.80;99.90;;;;;;5028141;28;20037;-80
2021/01/23 01:12:49;;;;;;;15.05;6.75;;;3.80;99.90;;;;;;5010064;28;20095;-81
2021/01/23 01:15:14;;;;;;;12.52;5.70;;;3.80;99.90;;;;;;5026499;28;20041;-80
2021/01/23 01:17:40;;;;;;;10.85;6.28;;;3.80;99.90;;;;;;5009724;28;20050;-80
2021/01/23 01:20:06;;;;;;;9.15;6.10;;;3.70;99.90;;;;;;5026392;28;20044;-81
2021/01/23 01:22:32;;;;;;;9.60;6.40;;;3.70;99.90;;;;;;5026420;28;20132;-82
2021/01/23 01:24:58;;;;;;;10.07;6.70;;;3.70;99.90;;;;;;5010058;28;20055;-81
2021/01/23 01:27:24;;;;;;;10.82;7.30;;;3.60;99.90;;;;;;5026521;28;20064;-83
2021/01/23 01:29:49;;;;;;;16.77;7.22;;;3.50;99.90;;;;;;5026315;28;20116;-80
2021/01/23 01:32:16;;;;;;;10.60;6.88;;;3.40;99.90;;;;;;5027603;28;20065;-81
2021/01/23 01:34:42;;;;;;;12.82;7.10;;;3.20;99.80;;;;;;5010824;28;20044;-77
2021/01/23 01:37:08;;;;;;;15.38;7.00;;;3.10;99.90;;;;;;4997325;28;20548;-80
2021/01/23 01:39:34;;;;;;;11.43;6.85;;;3.00;99.90;;;;;;5031211;28;20090;-81
2021/01/23 01:42:06;;;;;;;16.70;7.88;;;3.00;99.90;;;;;;5031453;28;20135;-80
2021/01/23 01:44:32;;;;;;;16.30;8.23;;;2.80;99.90;;;;;;5030059;28;20080;-82
2021/01/23 01:46:59;;;;;;;17.77;9.90;;;2.70;99.90;;;;;;5013488;28;20116;-83
2021/01/23 01:49:26;;;;;;;12.05;7.32;;;2.60;99.90;;;;;;5031087;28;20118;-79
2021/01/23 01:51:56;;;;;;;14.10;8.68;;;2.50;99.90;;;;;;5030000;28;20029;-82
2021/01/23 01:54:25;;;;;;;15.25;8.60;;;2.40;99.90;;;;;;5013842;28;20025;-78
2021/01/23 01:56:52;;;;;;;18.15;8.13;;;2.40;99.90;;;;;;5029889;28;20506;-79
2021/01/23 01:59:17;;;;;;;15.23;8.40;;;2.30;99.90;;;;;;5029513;28;20034;-80
2021/01/23 02:01:44;;;;;;;16.00;8.63;;;2.20;99.90;;;;;;5029599;28;20021;-79
2021/01/23 02:04:10;;;;;;;15.23;8.68;;;2.20;99.90;;;;;;5030650;28;20484;-82
2021/01/23 02:06:41;;;;;;;14.10;8.85;;;2.20;99.90;;;;;;5030697;28;20099;-82
2021/01/23 02:09:10;;;;;;;16.17;8.60;;;2.10;99.90;;;;;;5030976;28;20022;-80
2021/01/23 02:11:55;;;;;;;;;;;2.10;99.90;;;;;;5031203;28;20468;-80
2021/01/23 02:14:27;;;;;;;11.35;7.78;;;2.00;99.90;;;;;;5030587;28;19905;-81
2021/01/23 02:16:54;;;;;;;13.10;7.53;;;2.00;99.90;;;;;;5029002;28;20076;-82
2021/01/23 02:19:42;;;;;;;10.52;7.22;;;1.90;99.90;;;;;;5029064;28;20053;-83
2021/01/23 02:22:17;;;;;;;17.23;7.78;;;1.90;99.90;;;;;;5027690;28;20535;-80
2021/01/23 02:24:46;;;;;;;20.48;8.15;;;1.80;99.90;;;;;;5030273;28;20032;-78
2021/01/23 02:27:24;;;;;;;20.10;9.98;;;1.80;99.90;;;;;;5029163;28;20100;-81
2021/01/23 02:30:08;;;;;;;17.30;9.10;;;1.80;99.90;;;;;;5028949;28;20480;-78
2021/01/23 02:32:37;;;;;;;19.20;9.23;;;1.80;99.90;;;;;;5028899;28;20021;-79
2021/01/23 02:35:06;;;;;;;13.43;8.20;;;1.80;99.90;;;;;;5029028;28;20018;-78
2021/01/23 02:37:33;;;;;;;19.38;8.73;;;1.80;99.90;;;;;;5029002;28;20271;-83
2021/01/23 02:40:00;;;;;;;19.58;9.68;;;1.80;99.90;;;;;;5028813;28;20086;-81
2021/01/23 02:42:26;;;;;;;13.25;8.93;;;1.80;99.90;;;;;;5029097;28;20529;-80
2021/01/23 02:44:51;;;;;;;15.07;9.20;;;1.80;99.90;;;;;;5028803;28;20138;-82
2021/01/23 02:47:17;;;;;;;17.38;8.90;;;1.80;99.90;;;;;;5027967;28;20136;-81
2021/01/23 02:49:43;;;;;;;13.98;8.45;;;1.70;99.90;;;;;;5029662;28;20029;-78
2021/01/23 02:52:12;;;;;;;16.15;8.57;;;1.70;99.90;;;;;;5028307;28;20036;-80
2021/01/23 02:54:58;;;;;;;16.77;8.82;;;1.70;99.90;;;;;;5029818;28;20454;-81
2021/01/23 02:57:25;;;;;;;18.55;9.75;;;1.60;99.90;;;;;;5029708;28;20017;-80
2021/01/23 02:59:55;;;;;;;13.77;8.63;;;1.60;99.90;;;;;;5028370;28;20174;-82
2021/01/23 03:02:23;;;;;;;16.55;8.63;;;1.60;99.90;;;;;;5028570;28;20468;-78
2021/01/23 03:04:51;;;;;;;17.52;9.70;;;1.60;99.90;;;;;;5028452;28;20022;-81
2021/01/23 03:07:17;;;;;;;24.65;10.10;;;1.60;99.90;;;;;;5028015;28;20022;-80
2021/01/23 03:09:44;;;;;;;19.30;10.45;;;1.60;99.90;;;;;;5011696;28;20401;-80
2021/01/23 03:12:11;;;;;;;21.23;10.80;;;1.70;99.90;;;;;;5028274;28;20041;-82
2021/01/23 03:14:37;;;;;;;21.98;11.13;;;1.70;99.90;;;;;;5029270;28;20033;-82
2021/01/23 03:17:03;;;;;;;28.00;12.80;;;1.80;99.90;;;;;;5027808;28;20384;-77
2021/01/23 03:19:29;;;;;;;34.50;14.85;;;1.80;99.90;;;;;;5029191;28;20025;-78
2021/01/23 03:21:55;;;;;;;36.28;15.57;;;1.90;99.90;;;;;;5028011;28;20018;-80
2021/01/23 03:24:21;;;;;;;34.45;17.23;;;1.90;99.90;;;;;;5027954;28;20025;-80
2021/01/23 03:26:48;;;;;;;37.88;17.63;;;2.00;99.90;;;;;;5027899;28;20053;-83
2021/01/23 03:29:15;;;;;;;36.15;15.50;;;2.00;99.90;;;;;;5027642;28;20116;-80
2021/01/23 03:31:41;;;;;;;30.08;11.65;;;2.10;99.90;;;;;;5027708;28;20039;-81
2021/01/23 03:34:07;;;;;;;21.48;11.10;;;2.20;99.90;;;;;;4994932;28;20025;-82
2021/01/23 03:36:34;;;;;;;33.05;11.32;;;2.20;99.90;;;;;;5029131;28;20364;-84
2021/01/23 03:39:00;;;;;;;27.67;9.35;;;2.20;99.90;;;;;;5028749;28;20021;-80
2021/01/23 03:41:26;;;;;;;21.25;9.40;;;2.20;99.90;;;;;;4994841;28;20060;-81
2021/01/23 03:43:52;;;;;;;18.20;8.23;;;2.20;99.90;;;;;;5028971;28;20032;-78
2021/01/23 03:46:17;;;;;;;15.10;8.07;;;2.30;99.90;;;;;;5028730;28;20033;-81
2021/01/23 03:48:43;;;;;;;11.27;6.70;;;2.30;99.90;;;;;;5010948;28;20057;-81
2021/01/23 03:51:09;;;;;;;16.55;8.23;;;2.40;99.90;;;;;;5028568;28;20027;-82
2021/01/23 03:53:35;;;;;;;12.73;7.57;;;2.40;99.90;;;;;;5027420;28;20052;-84
2021/01/23 03:56:01;;;;;;;14.65;7.65;;;2.40;99.90;;;;;;5027327;28;20429;-82
2021/01/23 03:58:27;;;;;;;13.98;7.30;;;2.40;99.90;;;;;;5027278;28;20053;-81
2021/01/23 04:00:52;;;;;;;13.82;7.18;;;2.40;99.90;;;;;;5027443;28;20485;-79
2021/01/23 04:03:18;;;;;;;12.98;6.32;;;2.30;99.90;;;;;;5027356;28;20022;-81
2021/01/23 04:05:44;;;;;;;13.18;6.50;;;2.30;99.90;;;;;;4994446;28;20025;-81
2021/01/23 04:08:09;;;;;;;12.00;6.80;;;2.20;99.90;;;;;;5028274;28;20033;-78
2021/01/23 04:10:36;;;;;;;10.82;6.60;;;2.20;99.90;;;;;;4994380;28;20492;-80
2021/01/23 04:13:02;;;;;;;10.70;6.85;;;2.20;99.90;;;;;;5028410;28;20033;-83
2021/01/23 04:15:28;;;;;;;14.30;6.40;;;2.30;99.90;;;;;;5027102;28;20036;-78
2021/01/23 04:17:54;;;;;;;11.65;6.28;;;2.30;99.90;;;;;;5010640;28;20400;-81
2021/01/23 04:20:20;;;;;;;12.68;6.30;;;2.30;99.90;;;;;;5010497;28;20033;-79
2021/01/23 04:22:47;;;;;;;11.32;5.72;;;2.40;99.90;;;;;;5028659;28;20565;-80
2021/01/23 04:25:13;;;;;;;8.50;5.38;;;2.30;99.90;;;;;;5026806;28;20495;-84
2021/01/23 04:27:40;;;;;;;12.70;5.90;;;2.30;99.90;;;;;;5026731;28;20036;-80
2021/01/23 04:30:07;;;;;;;14.80;7.97;;;2.30;99.90;;;;;;5026793;28;20072;-79
2021/01/23 04:32:35;;;;;;;10.52;5.40;;;2.40;99.90;;;;;;5026782;28;20480;-78
2021/01/23 04:35:02;;;;;;;10.27;6.45;;;2.40;99.90;;;;;;5026989;28;20107;-79
2021/01/23 04:37:27;;;;;;;12.68;5.90;;;2.40;99.90;;;;;;5026671;28;20037;-79
2021/01/23 04:39:53;;;;;;;10.00;5.50;;;2.40;99.90;;;;;;5027805;28;20033;-81
2021/01/23 04:42:20;;;;;;;9.15;4.93;;;2.50;99.90;;;;;;5028006;28;20049;-79
2021/01/23 04:44:46;;;;;;;12.13;5.90;;;2.50;99.90;;;;;;5010655;28;20591;-80
2021/01/23 04:47:13;;;;;;;12.50;5.30;;;2.60;99.90;;;;;;5026943;28;20148;-78
2021/01/23 04:49:38;;;;;;;9.55;4.97;;;2.60;99.90;;;;;;5026513;28;20051;-79
2021/01/23 04:52:06;;;;;;;7.93;4.47;;;2.60;99.90;;;;;;5010040;28;20112;-80
2021/01/23 04:54:35;;;;;;;10.55;5.22;;;2.70;99.90;;;;;;5027974;28;20022;-82
2021/01/23 04:57:02;;;;;;;13.73;6.10;;;2.60;99.90;;;;;;5027829;28;20025;-78
2021/01/23 04:59:28;;;;;;;7.63;4.10;;;2.60;99.90;;;;;;5026586;28;20487;-85
2021/01/23 05:02:22;;;;;;;7.30;3.58;;;2.60;99.90;;;;;;5026437;28;20050;-79
2021/01/23 05:04:55;;;;;;;6.97;4.10;;;2.50;99.90;;;;;;5026452;28;20057;-81
2021/01/23 05:07:28;;;;;;;7.50;3.80;;;2.60;99.90;;;;;;5010984;28;20018;-81
2021/01/23 05:09:54;;;;;;;10.10;4.40;;;2.50;99.90;;;;;;5029080;28;20036;-81
2021/01/23 05:12:40;;;;;;;7.60;4.05;;;2.60;99.90;;;;;;5030246;28;20035;-79
2021/01/23 05:15:29;;;;;;;8.13;4.28;;;2.60;99.90;;;;;;5014331;28;20060;-80
2021/01/23 05:17:56;;;;;;;8.10;4.22;;;2.60;99.90;;;;;;5030158;28;20551;-81
2021/01/23 05:20:35;;;;;;;14.02;5.32;;;2.60;99.90;;;;;;5031332;28;20037;-79
2021/01/23 05:23:04;;;;;;;15.57;7.15;;;2.60;99.90;;;;;;5031430;28;20052;-79
2021/01/23 05:25:31;;;;;;;15.27;8.15;;;2.60;99.90;;;;;;5030021;28;20033;-80
2021/01/23 05:27:58;;;;;;;17.55;7.95;;;2.60;99.90;;;;;;5031271;28;20024;-77
2021/01/23 05:30:25;;;;;;;11.40;6.43;;;2.60;99.90;;;;;;5029948;28;20108;-82
2021/01/23 05:33:15;;;;;;;13.30;6.72;;;2.60;99.90;;;;;;5031177;28;20056;-81
2021/01/23 05:35:40;;;;;;;;;;;2.50;99.90;;;;;;5030373;28;20041;-79
2021/01/23 05:38:20;;;;;;;21.70;9.65;;;2.50;99.90;;;;;;5013639;28;19917;-80
2021/01/23 05:40:46;;;;;;;21.88;10.10;;;2.50;99.90;;;;;;5031166;28;20398;-79
2021/01/23 05:43:12;;;;;;;30.88;10.65;;;2.50;99.90;;;;;;5030962;28;20032;-83
2021/01/23 05:45:47;;;;;;;30.13;9.07;;;2.60;99.90;;;;;;5029842;28;20052;-81
2021/01/23 05:48:14;;;;;;;29.95;10.60;;;2.60;99.90;;;;;;5030899;28;20100;-82
2021/01/23 05:50:39;;;;;;;29.15;11.40;;;2.60;99.90;;;;;;5013458;28;20040;-80
2021/01/23 05:53:05;;;;;;;32.25;13.43;;;2.50;99.90;;;;;;5013221;28;20022;-81
2021/01/23 05:55:30;;;;;;;40.08;12.95;;;2.50;99.90;;;;;;5013467;28;20086;-81
2021/01/23 05:57:57;;;;;;;41.55;13.32;;;2.60;99.90;;;;;;4996885;28;20125;-80
2021/01/23 06:00:24;;;;;;;39.00;13.85;;;2.60;99.90;;;;;;5029351;28;20060;-82
2021/01/23 06:02:50;;;;;;;40.33;13.13;;;2.50;99.90;;;;;;5029316;28;20029;-81
2021/01/23 06:05:16;;;;;;;29.77;13.18;;;2.50;99.90;;;;;;5029356;28;20037;-77
2021/01/23 06:07:47;;;;;;;24.70;11.32;;;2.50;99.90;;;;;;5013105;28;20022;-81
2021/01/23 06:10:22;;;;;;;32.67;14.98;;;2.40;99.90;;;;;;5012753;28;20124;-79
2021/01/23 06:12:48;;;;;;;35.22;13.63;;;2.40;99.90;;;;;;5030529;28;20036;-82
2021/01/23 06:15:33;;;;;;;37.75;14.43;;;2.50;99.90;;;;;;5029421;28;20474;-81
2021/01/23 06:18:00;;;;;;;30.77;14.48;;;2.40;99.90;;;;;;5030305;28;20041;-80
2021/01/23 06:20:41;;;;;;;31.17;12.93;;;2.50;99.90;;;;;;5029989;28;20063;-79
2021/01/23 06:23:16;;;;;;;33.70;13.32;;;2.50;99.90;;;;;;5028286;28;20033;-81
2021/01/23 06:25:51;;;;;;;25.30;10.60;;;2.40;99.90;;;;;;5028865;28;20068;-80
2021/01/23 06:28:25;;;;;;;19.20;9.68;;;2.40;99.90;;;;;;5028895;28;20080;-82
2021/01/23 06:30:52;;;;;;;16.67;8.10;;;2.40;99.90;;;;;;5028885;28;20026;-81
2021/01/23 06:33:24;;;;;;;14.77;7.38;;;2.40;99.90;;;;;;5028453;28;20551;-79
2021/01/23 06:36:01;;;;;;;12.75;5.95;;;2.40;99.90;;;;;;5028859;28;20151;-81
2021/01/23 06:38:31;;;;;;;18.85;5.50;;;2.40;99.90;;;;;;5028696;28;20036;-80
2021/01/23 06:41:15;;;;;;;;;;;2.40;99.90;;;;;;5029396;28;20403;-81
2021/01/23 06:44:07;;;;;;;13.60;6.40;;;2.40;99.90;;;;;;5029985;28;19944;-78
2021/01/23 06:46:43;;;;;;;13.52;6.40;;;2.40;99.90;;;;;;5029970;28;20026;-81
2021/01/23 06:49:14;;;;;;;8.93;5.50;;;2.30;99.90;;;;;;5012374;28;20036;-80
2021/01/23 06:51:40;;;;;;;11.57;5.78;;;2.30;99.90;;;;;;5029741;28;20060;-84
2021/01/23 06:54:18;;;;;;;7.53;4.93;;;2.40;99.90;;;;;;5028387;28;20025;-79
2021/01/23 06:56:49;;;;;;;8.82;5.35;;;2.40;99.90;;;;;;5028473;28;20025;-80
2021/01/23 06:59:35;;;;;;;12.05;6.60;;;2.40;99.90;;;;;;5029184;28;20021;-81
2021/01/23 07:02:04;;;;;;;18.25;7.40;;;2.40;99.90;;;;;;5029550;28;20030;-80
2021/01/23 07:04:46;;;;;;;13.27;7.05;;;2.30;99.90;;;;;;5029456;28;20114;-80
2021/01/23 07:07:12;;;;;;;14.82;7.40;;;2.30;99.90;;;;;;5027952;28;20162;-79
2021/01/23 07:09:51;;;;;;;16.13;8.63;;;2.30;99.90;;;;;;5028035;28;20044;-80
2021/01/23 07:12:37;;;;;;;;;;;2.30;99.90;;;;;;5028596;28;20088;-81
2021/01/23 07:15:11;;;;;;;15.23;7.03;;;2.30;99.90;;;;;;5028042;28;19911;-79
2021/01/23 07:17:42;;;;;;;12.77;6.32;;;2.30;99.90;;;;;;5027673;28;20056;-79
2021/01/23 07:20:09;;;;;;;15.15;6.70;;;2.20;99.90;;;;;;5027686;28;20032;-81
2021/01/23 07:22:36;;;;;;;17.33;6.30;;;2.10;99.90;;;;;;5029258;28;20045;-79
2021/01/23 07:25:04;;;;;;;12.30;6.30;;;2.00;99.90;;;;;;5027775;28;20032;-78
2021/01/23 07:27:30;;;;;;;15.02;6.30;;;1.80;99.90;;;;;;5029156;28;20032;-80
2021/01/23 07:29:56;;;;;;;10.70;5.85;;;1.70;99.90;;;;;;5011459;28;20030;-83
2021/01/23 07:32:22;;;;;;;17.98;8.43;;;1.60;99.90;;;;;;5027743;28;20499;-81
2021/01/23 07:35:00;;;;;;;15.00;8.38;;;1.50;99.90;;;;;;5027884;28;20484;-80
2021/01/23 07:37:38;;;;;;;21.85;11.05;;;1.40;99.90;;;;;;5011395;28;20102;-81
2021/01/23 07:40:05;;;;;;;25.88;12.52;;;1.30;99.90;;;;;;5028916;28;20024;-82
2021/01/23 07:42:30;;;;;;;27.38;11.75;;;1.20;99.90;;;;;;5027747;28;20468;-81
2021/01/23 07:44:58;;;;;;;21.00;11.40;;;1.20;99.90;;;;;;5028988;28;20080;-79
2021/01/23 07:47:24;;;;;;;20.13;10.25;;;1.10;99.90;;;;;;5028583;28;20080;-79
2021/01/23 07:49:50;;;;;;;18.15;9.15;;;1.10;99.90;;;;;;5027193;28;20025;-78
2021/01/23 07:52:16;;;;;;;20.50;7.93;;;1.10;99.90;;;;;;5028658;28;20021;-81
2021/01/23 07:54:51;;;;;;;20.17;7.00;;;1.00;99.90;;;;;;5028564;28;20032;-79
2021/01/23 07:57:17;;;;;;;16.60;7.05;;;1.00;99.90;;;;;;5028503;28;20029;-81
2021/01/23 07:59:53;;;;;;;12.45;6.82;;;1.00;99.90;;;;;;5027079;28;20052;-79
2021/01/23 08:02:19;;;;;;;11.30;5.47;;;1.00;99.90;;;;;;5027089;28;20456;-79
2021/01/23 08:04:53;;;;;;;15.85;5.55;;;0.90;99.90;;;;;;5010876;28;20108;-81
2021/01/23 08:07:25;;;;;;;17.33;5.07;;;0.90;99.90;;;;;;5027534;28;20112;-81
2021/01/23 08:10:14;;;;;;;15.85;5.30;;;0.90;99.90;;;;;;5028021;28;20022;-80
2021/01/23 08:12:41;;;;;;;12.57;5.80;;;0.90;99.90;;;;;;5028496;28;20091;-81
2021/01/23 08:15:10;;;;;;;13.52;4.40;;;0.90;99.90;;;;;;5028345;28;20053;-84
2021/01/23 08:17:40;;;;;;;8.15;4.22;;;0.90;99.90;;;;;;5026973;28;20060;-83
2021/01/23 08:20:17;;;;;;;12.93;4.63;;;0.90;99.90;;;;;;5027699;28;20095;-82
2021/01/23 08:22:59;;;;;;;14.38;4.38;;;0.80;99.90;;;;;;5026897;28;20038;-81
2021/01/23 08:25:27;;;;;;;10.23;3.95;;;0.80;99.90;;;;;;5027169;28;20519;-80
2021/01/23 08:27:56;;;;;;;12.27;3.40;;;0.90;99.90;;;;;;5028109;28;20037;-79
2021/01/23 08:30:24;;;;;;;12.65;3.85;;;0.80;99.90;;;;;;5010803;28;20040;-78
2021/01/23 08:32:51;;;;;;;16.10;3.65;;;0.90;99.90;;;;;;5027962;28;20030;-80
2021/01/23 08:35:17;;;;;;;14.20;3.40;;;0.90;99.90;;;;;;5028448;28;20026;-67
2021/01/23 08:37:46;;;;;;;9.38;3.80;;;0.90;99.90;;;;;;5028001;28;20522;-81
2021/01/23 08:40:12;;;;;;;9.83;3.27;;;0.90;99.90;;;;;;5010573;28;20030;-79
2021/01/23 08:42:38;;;;;;;7.70;3.30;;;0.90;99.90;;;;;;5026825;28;20041;-81
2021/01/23 08:45:06;;;;;;;18.95;3.33;;;0.90;99.90;;;;;;5027278;28;20025;-78
2021/01/23 08:47:31;;;;;;;8.25;3.88;;;1.00;99.90;;;;;;5026678;28;20124;-81
2021/01/23 08:49:57;;;;;;;13.38;3.58;;;1.00;99.90;;;;;;5027698;28;20121;-78
2021/01/23 08:52:23;;;;;;;10.38;3.80;;;1.00;99.90;;;;;;5010080;28;20071;-81
2021/01/23 08:54:49;;;;;;;16.05;4.10;;;1.00;99.90;;;;;;5027673;28;20030;-79
2021/01/23 08:57:14;;;;;;;11.55;4.00;;;1.10;99.90;;;;;;4993713;28;20392;-80
2021/01/23 08:59:40;;;;;;;8.88;2.90;;;1.10;99.90;;;;;;5009660;28;20048;-81
2021/01/23 09:02:06;;;;;;;11.48;2.97;;;1.10;99.90;;;;;;4993380;28;20044;-78
2021/01/23 09:04:32;;;;;;;11.20;2.85;;;1.20;99.90;;;;;;5025974;28;20373;-79
2021/01/23 09:06:57;;;;;;;8.70;2.95;;;1.20;99.90;;;;;;5025915;28;20088;-80
2021/01/23 09:09:23;;;;;;;11.52;3.45;;;1.20;99.90;;;;;;5009368;28;20033;-81
2021/01/23 09:11:50;;;;;;;12.32;2.88;;;1.20;99.90;;;;;;5027279;28;20459;-80
2021/01/23 09:14:16;;;;;;;7.70;2.47;;;1.30;99.90;;;;;;5027751;28;20025;-82
2021/01/23 09:16:42;;;;;;;12.45;3.67;;;1.40;99.90;;;;;;5026257;28;20399;-82
2021/01/23 09:19:08;;;;;;;10.93;3.28;;;1.40;99.90;;;;;;5026230;28;20120;-79
2021/01/23 09:21:34;;;;;;;10.40;2.80;;;1.50;99.90;;;;;;5025831;28;20491;-80
2021/01/23 09:24:00;;;;;;;10.43;2.88;;;1.70;99.90;;;;;;5025953;28;20030;-80
2021/01/23 09:26:25;;;;;;;7.97;2.65;;;1.90;99.90;;;;;;5027193;28;20107;-79
2021/01/23 09:28:51;;;;;;;8.40;2.60;;;2.50;99.90;;;;;;5027004;28;20032;-81
2021/01/23 09:31:17;;;;;;;7.13;2.58;;;3.20;99.90;;;;;;5009618;28;20476;-81
2021/01/23 09:33:43;;;;;;;12.88;2.53;;;3.90;99.90;;;;;;5026360;28;20034;-78
2021/01/23 09:36:08;;;;;;;12.25;2.78;;;4.60;99.90;;;;;;5025985;28;20075;-81
2021/01/23 09:38:34;;;;;;;6.07;2.80;;;5.20;99.90;;;;;;5025965;28;20025;-80
2021/01/23 09:41:00;;;;;;;11.23;3.15;;;5.80;99.90;;;;;;5025854;28;20099;-79
2021/01/23 09:43:26;;;;;;;10.65;3.25;;;6.20;99.90;;;;;;5026978;28;20105;-78
2021/01/23 09:45:51;;;;;;;11.07;2.45;;;6.60;99.90;;;;;;5025795;28;20406;-79
2021/01/23 09:48:19;;;;;;;8.32;2.22;;;6.90;99.90;;;;;;5009195;28;20041;-79
2021/01/23 09:50:45;;;;;;;7.85;2.42;;;7.20;99.90;;;;;;5009654;28;20039;-80
2021/01/23 09:53:11;;;;;;;8.15;2.58;;;7.70;99.90;;;;;;5025373;28;20044;-80
2021/01/23 09:55:36;;;;;;;9.30;2.20;;;8.10;99.30;;;;;;5025864;28;20384;-82
2021/01/23 09:58:02;;;;;;;9.05;2.70;;;8.60;98.90;;;;;;5029070;28;20061;-77
2021/01/23 10:00:28;;;;;;;12.32;2.80;;;9.00;98.50;;;;;;5012443;28;20101;-80
2021/01/23 10:02:54;;;;;;;6.95;3.85;;;9.40;97.60;;;;;;5012407;28;20466;-80
2021/01/23 10:05:20;;;;;;;7.22;2.60;;;9.80;97.00;;;;;;5011945;28;20084;-83
2021/01/23 10:07:45;;;;;;;5.55;2.42;;;10.20;96.80;;;;;;5011644;28;20120;-80
2021/01/23 10:10:11;;;;;;;10.80;2.72;;;10.50;96.10;;;;;;5028481;28;20546;-80
2021/01/23 10:12:37;;;;;;;8.77;3.35;;;10.90;95.80;;;;;;5028704;28;20454;-79
2021/01/23 10:15:04;;;;;;;10.98;3.65;;;11.30;95.30;;;;;;5012396;28;20049;-80
2021/01/23 10:17:29;;;;;;;8.02;2.95;;;11.60;94.10;;;;;;5028383;28;20156;-78
2021/01/23 10:19:55;;;;;;;10.10;3.38;;;11.90;93.60;;;;;;5012038;28;20112;-81
2021/01/23 10:22:21;;;;;;;8.15;3.05;;;12.20;93.00;;;;;;4995892;28;20423;-81
2021/01/23 10:24:46;;;;;;;9.00;2.70;;;12.40;92.30;;;;;;5028672;28;20036;-83
2021/01/23 10:27:13;;;;;;;8.82;3.03;;;12.60;92.10;;;;;;5028657;28;20452;-80
2021/01/23 10:29:38;;;;;;;7.07;3.17;;;12.90;91.70;;;;;;5028152;28;20037;-80
2021/01/23 10:32:04;;;;;;;11.65;3.70;;;13.10;90.60;;;;;;5028270;28;20476;-79
2021/01/23 10:34:30;;;;;;;15.35;5.38;;;13.20;89.90;;;;;;5028459;28;20038;-82
2021/01/23 10:36:56;;;;;;;9.80;3.55;;;13.30;89.20;;;;;;5028004;28;20094;-82
2021/01/23 10:39:21;;;;;;;10.65;5.30;;;13.60;89.30;;;;;;5027764;28;20103;-80
2021/01/23 10:41:47;;;;;;;13.00;6.25;;;13.90;87.90;;;;;;5027901;28;20034;-80
2021/01/23 10:44:14;;;;;;;10.13;5.63;;;14.00;85.90;;;;;;5028476;28;20037;-80
2021/01/23 10:46:39;;;;;;;5.95;3.30;;;14.20;84.80;;;;;;5029082;28;20102;-81
2021/01/23 10:49:06;;;;;;;9.80;3.50;;;14.40;84.20;;;;;;5011336;28;20088;-81
2021/01/23 10:51:32;;;;;;;7.47;3.65;;;14.60;83.20;;;;;;5029342;28;20101;-83
2021/01/23 10:53:58;;;;;;;10.88;3.42;;;14.70;81.50;;;;;;5027693;28;20116;-80
2021/01/23 10:56:23;;;;;;;9.02;4.40;;;14.80;80.50;;;;;;5027677;28;20476;-82
2021/01/23 10:58:49;;;;;;;12.30;5.15;;;15.00;79.80;;;;;;5028823;28;20435;-83
2021/01/23 11:01:15;;;;;;;14.30;4.32;;;15.30;79.80;;;;;;5011149;28;20029;-83
2021/01/23 11:03:41;;;;;;;11.93;5.40;;;15.60;78.50;;;;;;5027449;28;20492;-79
2021/01/23 11:06:07;;;;;;;8.85;3.38;;;15.80;77.70;;;;;;5027548;28;20018;-81
2021/01/23 11:08:33;;;;;;;9.50;5.63;;;16.00;76.80;;;;;;5027899;28;20105;-81
2021/01/23 11:10:59;;;;;;;9.88;4.68;;;16.30;76.00;;;;;;5027280;28;20060;-82
2021/01/23 11:13:25;;;;;;;21.77;17.23;;;16.50;75.20;;;;;;5011217;28;20481;-81
2021/01/23 11:15:50;;;;;;;11.68;4.93;;;16.80;74.80;;;;;;5029250;28;20516;-81
2021/01/23 11:18:16;;;;;;;7.13;2.40;;;17.10;73.60;;;;;;5027059;28;20053;-81
2021/01/23 11:20:42;;;;;;;9.05;3.22;;;17.20;70.90;;;;;;5027986;28;20037;-80
2021/01/23 11:23:08;;;;;;;8.15;3.22;;;17.20;69.60;;;;;;5027004;28;20068;-83
2021/01/23 11:25:34;;;;;;;29.40;16.33;;;17.20;69.00;;;;;;5011147;28;20029;-81
2021/01/23 11:27:59;;;;;;;7.13;3.72;;;17.30;68.40;;;;;;5028454;28;20026;-82
2021/01/23 11:30:25;;;;;;;9.70;3.85;;;17.40;68.50;;;;;;5026324;28;20065;-80
2021/01/23 11:32:52;;;;;;;16.40;5.50;;;17.60;67.80;;;;;;5028105;28;20552;-82
2021/01/23 11:35:18;;;;;;;7.47;3.55;;;17.60;65.90;;;;;;5026757;28;20399;-83
2021/01/23 11:37:44;;;;;;;11.27;3.67;;;17.70;66.10;;;;;;5027934;28;20109;-78
2021/01/23 11:40:10;;;;;;;14.05;3.92;;;17.70;65.40;;;;;;5026193;28;20439;-81
2021/01/23 11:42:36;;;;;;;9.57;3.50;;;17.80;64.70;;;;;;5009900;28;20541;-81
2021/01/23 11:45:08;;;;;;;8.20;3.28;;;17.80;64.30;;;;;;5028127;28;20052;-81
2021/01/23 11:47:34;;;;;;;9.60;3.90;;;17.80;63.20;;;;;;5026310;28;20032;-82
2021/01/23 11:50:00;;;;;;;8.27;3.25;;;17.80;62.70;;;;;;5027602;28;20042;-80
2021/01/23 11:52:26;;;;;;;8.82;4.15;;;17.70;61.70;;;;;;5009682;28;20037;-81
2021/01/23 11:54:52;;;;;;;15.63;5.90;;;17.40;60.80;;;;;;4993259;28;20033;-79
2021/01/23 11:57:17;;;;;;;9.90;3.83;;;17.10;61.00;;;;;;5027006;28;20056;-84
2021/01/23 11:59:43;;;;;;;11.52;4.40;;;16.80;61.40;;;;;;5026641;28;20450;-81
2021/01/23 12:02:09;;;;;;;11.57;4.70;;;16.40;61.40;;;;;;5009553;28;20021;-81
2021/01/23 12:04:34;;;;;;;10.38;4.85;;;16.10;61.70;;;;;;5026346;28;20452;-81
2021/01/23 12:07:00;;;;;;;8.18;4.15;;;15.90;62.30;;;;;;5009552;28;20021;-79
2021/01/23 12:09:27;;;;;;;12.75;5.07;;;15.70;62.10;;;;;;5026606;28;20050;-80
2021/01/23 12:11:53;;;;;;;9.57;3.83;;;15.40;62.00;;;;;;5027275;28;20386;-80
2021/01/23 12:14:18;;;;;;;9.00;4.05;;;15.00;62.00;;;;;;5009598;28;20025;-78
2021/01/23 12:16:44;;;;;;;15.40;5.30;;;14.90;63.00;;;;;;5027106;28;20469;-82
2021/01/23 12:19:10;;;;;;;8.18;3.90;;;14.90;62.70;;;;;;5025028;28;20057;-82
2021/01/23 12:21:36;;;;;;;12.88;5.18;;;15.00;63.00;;;;;;5025760;28;20495;-80
2021/01/23 12:24:01;;;;;;;12.13;5.63;;;15.00;62.80;;;;;;5027668;28;20519;-81
2021/01/23 12:26:27;;;;;;;10.48;4.78;;;15.00;64.00;;;;;;5009597;28;20101;-81
2021/01/23 12:28:53;;;;;;;5.85;2.63;;;15.30;64.30;;;;;;5009721;28;20021;-83
2021/01/23 12:31:19;;;;;;;13.73;6.10;;;15.50;64.10;;;;;;4993364;28;20116;-80
2021/01/23 12:33:45;;;;;;;8.73;4.07;;;15.70;62.90;;;;;;5025982;28;20044;-82
2021/01/23 12:36:11;;;;;;;10.82;5.10;;;15.80;62.80;;;;;;5027188;28;20036;-80
2021/01/23 12:38:37;;;;;;;10.35;3.72;;;16.00;63.00;;;;;;5025540;28;20032;-82
2021/01/23 12:41:03;;;;;;;9.48;3.72;;;16.10;62.90;;;;;;5008948;28;20041;-79
2021/01/23 12:43:29;;;;;;;13.88;3.40;;;16.30;62.40;;;;;;5025310;28;20388;-79
2021/01/23 12:45:55;;;;;;;7.45;2.42;;;16.30;61.40;;;;;;5026261;28;20018;-83
2021/01/23 12:48:22;;;;;;;8.85;2.83;;;16.10;60.10;;;;;;5026718;28;20451;-80
2021/01/23 12:50:51;;;;;;;11.10;3.53;;;15.50;59.40;;;;;;5025257;28;20026;-79
2021/01/23 12:53:17;;;;;;;8.70;3.40;;;14.90;59.10;;;;;;5009696;28;20027;-81